createdAt,value
2018-08-23T00:00:12.326Z,35.70
2018-08-23T00:01:27.261Z,36.50
2018-08-23T00:02:33.798Z,34.53
2018-08-23T00:03:40.129Z,37.48
2018-08-23T00:04:44.328Z,33.88
2018-08-23T00:05:54.498Z,36.60
2018-08-23T00:07:01.775Z,34.53
2018-08-23T00:09:40.409Z,40.43
2018-08-23T00:10:54.396Z,37.83
2018-08-23T00:12:00.740Z,37.58
2018-08-23T00:13:07.235Z,37.08
2018-08-23T00:14:12.322Z,37.63
2018-08-23T00:15:20.050Z,43.85
2018-08-23T00:16:38.578Z,36.35
2018-08-23T00:17:47.725Z,37.78
2018-08-23T00:18:52.428Z,35.80
2018-08-23T00:19:56.500Z,37.48
2018-08-23T00:21:00.926Z,35.52
2018-08-23T00:22:05.143Z,37.93
2018-08-23T00:23:09.635Z,35.38
2018-08-23T00:24:22.775Z,34.90
2018-08-23T00:25:26.885Z,34.15
2018-08-23T00:26:30.968Z,36.60
2018-08-23T00:27:35.177Z,35.03
2018-08-23T00:28:39.412Z,36.75
2018-08-23T00:29:43.497Z,37.23
2018-08-23T00:30:47.754Z,38.58
2018-08-23T00:31:57.045Z,39.35
2018-08-23T00:33:02.676Z,35.68
2018-08-23T00:34:06.897Z,38.25
2018-08-23T00:35:16.459Z,36.85
2018-08-23T00:36:20.501Z,35.85
2018-08-23T00:37:24.547Z,38.60
2018-08-23T00:38:28.919Z,35.95
2018-08-23T00:39:33.048Z,36.58
2018-08-23T00:40:40.892Z,37.65
2018-08-23T00:41:50.038Z,37.20
2018-08-23T00:42:59.319Z,37.13
2018-08-23T00:44:04.875Z,35.40
2018-08-23T00:45:17.196Z,35.70
2018-08-23T00:46:21.459Z,38.60
2018-08-23T00:47:26.991Z,37.63
2018-08-23T00:48:31.144Z,37.00
2018-08-23T00:49:35.291Z,36.65
2018-08-23T00:51:01.163Z,38.83
2018-08-23T00:52:05.427Z,37.30
2018-08-23T00:53:09.805Z,35.80
2018-08-23T00:54:14.448Z,35.20
2018-08-23T00:55:28.368Z,37.78
2018-08-23T00:56:32.425Z,37.08
2018-08-23T00:57:37.124Z,38.88
2018-08-23T00:58:46.476Z,36.50
2018-08-23T00:59:55.203Z,40.67
2018-08-23T01:01:03.695Z,38.95
2018-08-23T01:02:09.305Z,42.70
2018-08-23T01:03:13.568Z,39.98
2018-08-23T01:04:20.368Z,40.12
2018-08-23T01:05:30.204Z,39.67
2018-08-23T01:06:43.202Z,38.85
2018-08-23T01:07:47.356Z,37.88
2018-08-23T01:08:51.689Z,36.00
2018-08-23T01:09:56.798Z,38.70
2018-08-23T01:11:00.809Z,36.77
2018-08-23T01:12:05.187Z,40.70
2018-08-23T01:13:09.254Z,41.55
2018-08-23T01:14:13.507Z,38.17
2018-08-23T01:15:17.581Z,38.92
2018-08-23T01:16:21.619Z,40.80
2018-08-23T01:17:25.704Z,38.60
2018-08-23T01:18:29.852Z,38.88
2018-08-23T01:19:39.203Z,39.25
2018-08-23T01:20:44.311Z,37.80
2018-08-23T01:21:54.573Z,41.05
2018-08-23T01:23:01.715Z,39.83
2018-08-23T01:24:06.060Z,37.28
2018-08-23T01:25:10.192Z,38.85
2018-08-23T01:26:14.327Z,38.35
2018-08-23T01:27:24.060Z,38.45
2018-08-23T01:28:28.360Z,39.75
2018-08-23T01:29:32.460Z,38.58
2018-08-23T01:30:38.046Z,40.23
2018-08-23T01:31:43.181Z,40.98
2018-08-23T01:32:47.386Z,38.80
2018-08-23T01:33:54.599Z,40.88
2018-08-23T01:35:00.274Z,41.85
2018-08-23T01:36:04.464Z,40.88
2018-08-23T01:37:08.541Z,39.90
2018-08-23T01:38:13.236Z,40.10
2018-08-23T01:39:17.713Z,40.70
2018-08-23T01:40:21.787Z,41.48
2018-08-23T01:41:26.191Z,41.15
2018-08-23T01:42:32.806Z,40.75
2018-08-23T01:43:36.923Z,40.67
2018-08-23T01:44:42.916Z,43.13
2018-08-23T01:45:46.951Z,41.75
2018-08-23T01:46:51.020Z,42.35
2018-08-23T01:47:56.041Z,43.30
2018-08-23T01:49:00.584Z,43.90
2018-08-23T01:50:04.691Z,44.38
2018-08-23T01:51:08.759Z,43.78
2018-08-23T01:52:12.796Z,40.83
2018-08-23T01:53:19.265Z,41.48
2018-08-23T01:54:23.331Z,45.43
2018-08-23T01:55:27.689Z,44.30
2018-08-23T01:56:32.036Z,43.65
2018-08-23T01:57:36.428Z,43.83
2018-08-23T02:00:09.665Z,43.02
2018-08-23T02:01:16.767Z,42.83
2018-08-23T02:02:21.101Z,44.03
2018-08-23T02:03:25.375Z,39.30
2018-08-23T02:04:29.359Z,45.45
2018-08-23T02:05:33.722Z,42.38
2018-08-23T02:06:37.818Z,44.45
2018-08-23T02:07:44.708Z,46.18
2018-08-23T02:08:48.809Z,44.85
2018-08-23T02:09:53.340Z,43.63
2018-08-23T02:10:57.384Z,44.58
2018-08-23T02:12:01.472Z,45.38
2018-08-23T02:13:10.646Z,45.65
2018-08-23T02:14:15.209Z,42.93
2018-08-23T02:15:19.348Z,42.45
2018-08-23T02:16:23.453Z,46.45
2018-08-23T02:17:27.679Z,45.60
2018-08-23T02:18:32.657Z,43.33
2018-08-23T02:19:49.030Z,43.83
2018-08-23T02:20:57.200Z,43.20
2018-08-23T02:22:01.296Z,43.68
2018-08-23T02:23:05.800Z,46.70
2018-08-23T02:24:09.860Z,44.67
2018-08-23T02:25:13.969Z,45.45
2018-08-23T02:26:18.026Z,46.00
2018-08-23T02:27:22.119Z,47.13
2018-08-23T02:28:26.211Z,42.78
2018-08-23T02:29:38.245Z,42.60
2018-08-23T02:30:50.327Z,44.45
2018-08-23T02:31:54.428Z,55.17
2018-08-23T02:32:58.671Z,46.40
2018-08-23T02:34:02.777Z,44.77
2018-08-23T02:35:07.068Z,46.15
2018-08-23T02:36:18.071Z,45.73
2018-08-23T02:37:22.340Z,44.27
2018-08-23T02:38:28.291Z,46.68
2018-08-23T02:39:32.351Z,47.98
2018-08-23T02:40:37.710Z,43.42
2018-08-23T02:41:42.357Z,49.20
2018-08-23T02:42:46.366Z,45.63
2018-08-23T02:43:50.432Z,45.65
2018-08-23T02:44:56.396Z,45.95
2018-08-23T02:46:03.224Z,45.70
2018-08-23T02:47:07.365Z,54.33
2018-08-23T02:48:11.378Z,48.02
2018-08-23T02:49:17.035Z,44.55
2018-08-23T02:50:21.054Z,46.37
2018-08-23T02:51:40.940Z,47.55
2018-08-23T02:52:45.025Z,45.67
2018-08-23T02:53:49.667Z,46.42
2018-08-23T02:54:54.075Z,48.15
2018-08-23T02:56:03.297Z,45.43
2018-08-23T02:57:11.831Z,50.30
2018-08-23T02:58:16.068Z,47.62
2018-08-23T02:59:20.125Z,48.10
2018-08-23T03:00:28.460Z,47.08
2018-08-23T03:01:34.038Z,52.85
2018-08-23T03:02:38.655Z,46.28
2018-08-23T03:03:55.038Z,50.33
2018-08-23T03:04:59.349Z,49.03
2018-08-23T03:06:03.790Z,46.45
2018-08-23T03:07:07.932Z,46.85
2018-08-23T03:08:12.187Z,46.45
2018-08-23T03:09:16.283Z,45.10
2018-08-23T03:10:20.452Z,48.70
2018-08-23T03:11:25.105Z,47.38
2018-08-23T03:12:29.171Z,56.83
2018-08-23T03:13:35.125Z,46.20
2018-08-23T03:14:39.639Z,48.50
2018-08-23T03:15:43.667Z,49.65
2018-08-23T03:17:30.986Z,50.90
2018-08-23T03:18:35.048Z,48.95
2018-08-23T03:19:39.662Z,47.35
2018-08-23T03:20:43.741Z,51.15
2018-08-23T03:21:50.945Z,49.03
2018-08-23T03:22:56.188Z,48.52
2018-08-23T03:24:00.287Z,48.75
2018-08-23T03:25:05.692Z,52.20
2018-08-23T03:26:09.751Z,50.63
2018-08-23T03:27:14.025Z,50.03
2018-08-23T03:28:18.238Z,49.18
2018-08-23T03:29:22.338Z,49.20
2018-08-23T03:30:26.393Z,48.83
2018-08-23T03:31:30.499Z,52.30
2018-08-23T03:32:34.498Z,50.75
2018-08-23T03:33:38.662Z,53.78
2018-08-23T03:34:42.713Z,51.73
2018-08-23T03:35:46.802Z,50.35
2018-08-23T03:36:50.871Z,53.08
2018-08-23T03:37:54.965Z,52.90
2018-08-23T03:38:59.320Z,53.17
2018-08-23T03:40:03.734Z,51.02
2018-08-23T03:41:07.821Z,50.63
2018-08-23T03:42:12.217Z,50.67
2018-08-23T03:43:16.345Z,50.35
2018-08-23T03:44:26.531Z,48.70
2018-08-23T03:45:30.547Z,49.95
2018-08-23T03:46:46.416Z,51.60
2018-08-23T03:47:52.957Z,49.55
2018-08-23T03:49:04.215Z,48.10
2018-08-23T03:52:22.678Z,47.15
2018-08-23T03:53:42.272Z,49.95
2018-08-23T03:54:57.317Z,50.05
2018-08-23T03:56:07.847Z,51.88
2018-08-23T03:57:17.081Z,50.88
2018-08-23T03:58:21.186Z,51.95
2018-08-23T03:59:25.217Z,52.38
2018-08-23T04:01:06.298Z,54.45
2018-08-23T04:02:10.492Z,56.15
2018-08-23T04:03:20.470Z,52.10
2018-08-23T04:04:24.522Z,53.35
2018-08-23T04:05:28.526Z,55.95
2018-08-23T04:06:33.343Z,56.15
2018-08-23T04:07:39.354Z,54.08
2018-08-23T04:08:43.512Z,53.90
2018-08-23T04:09:47.515Z,56.92
2018-08-23T04:10:51.568Z,52.90
2018-08-23T04:11:55.786Z,60.35
2018-08-23T04:12:59.831Z,55.08
2018-08-23T04:14:03.895Z,55.80
2018-08-23T04:15:24.657Z,57.43
2018-08-23T04:16:30.259Z,56.28
2018-08-23T04:17:34.590Z,54.27
2018-08-23T04:18:38.666Z,53.55
2018-08-23T04:19:49.561Z,54.80
2018-08-23T04:20:56.053Z,54.08
2018-08-23T04:22:01.253Z,56.20
2018-08-23T04:23:05.397Z,55.33
2018-08-23T04:24:09.539Z,57.33
2018-08-23T04:25:13.574Z,53.55
2018-08-23T04:26:19.634Z,54.42
2018-08-23T04:27:25.424Z,56.20
2018-08-23T04:28:29.409Z,54.38
2018-08-23T04:29:38.711Z,57.33
2018-08-23T04:30:42.736Z,55.05
2018-08-23T04:31:47.017Z,57.98
2018-08-23T04:32:51.365Z,58.25
2018-08-23T04:33:55.400Z,60.08
2018-08-23T04:35:00.770Z,60.83
2018-08-23T04:36:05.591Z,56.73
2018-08-23T04:37:09.623Z,55.73
2018-08-23T04:38:14.844Z,59.35
2018-08-23T04:39:19.335Z,57.45
2018-08-23T04:40:23.436Z,54.75
2018-08-23T04:41:27.631Z,59.42
2018-08-23T04:42:31.805Z,57.45
2018-08-23T04:43:35.844Z,55.23
2018-08-23T04:44:48.036Z,58.00
2018-08-23T04:45:52.318Z,54.05
2018-08-23T04:46:56.611Z,59.50
2018-08-23T04:48:04.970Z,64.22
2018-08-23T04:49:09.314Z,56.85
2018-08-23T04:50:13.779Z,60.58
2018-08-23T04:51:18.346Z,57.93
2018-08-23T04:52:22.507Z,57.10
2018-08-23T04:53:26.607Z,56.00
2018-08-23T04:54:30.601Z,57.80
2018-08-23T04:55:34.640Z,57.48
2018-08-23T04:56:44.816Z,59.60
2018-08-23T04:57:49.640Z,60.17
2018-08-23T04:58:53.752Z,55.60
2018-08-23T04:59:57.776Z,56.30
2018-08-23T05:01:01.826Z,57.10
2018-08-23T05:02:06.207Z,56.58
2018-08-23T05:03:10.264Z,58.70
2018-08-23T05:04:15.377Z,59.05
2018-08-23T05:05:19.633Z,58.90
2018-08-23T05:06:23.790Z,55.75
2018-08-23T05:07:27.977Z,58.42
2018-08-23T05:08:32.211Z,58.08
2018-08-23T05:09:36.689Z,56.88
2018-08-23T05:10:40.808Z,62.05
2018-08-23T05:11:45.159Z,61.30
2018-08-23T05:12:49.355Z,56.33
2018-08-23T05:13:54.248Z,61.23
2018-08-23T05:14:58.650Z,56.63
2018-08-23T05:16:03.322Z,60.95
2018-08-23T05:17:09.765Z,61.35
2018-08-23T05:18:13.897Z,60.08
2018-08-23T05:19:19.506Z,59.18
2018-08-23T05:20:24.331Z,58.52
2018-08-23T05:21:28.601Z,57.35
2018-08-23T05:22:34.536Z,61.58
2018-08-23T05:23:39.084Z,59.77
2018-08-23T05:24:43.661Z,59.33
2018-08-23T05:25:48.045Z,63.98
2018-08-23T05:26:52.690Z,61.37
2018-08-23T05:28:15.486Z,64.45
2018-08-23T05:29:21.200Z,59.67
2018-08-23T05:30:30.848Z,60.35
2018-08-23T05:31:34.911Z,64.50
2018-08-23T05:32:39.046Z,64.62
2018-08-23T05:33:43.129Z,56.65
2018-08-23T05:34:47.693Z,60.05
2018-08-23T05:35:51.773Z,60.25
2018-08-23T05:36:55.859Z,62.73
2018-08-23T05:38:01.356Z,62.40
2018-08-23T05:39:08.472Z,60.08
2018-08-23T05:40:13.824Z,60.03
2018-08-23T05:41:21.576Z,58.20
2018-08-23T05:42:39.335Z,60.43
2018-08-23T05:43:43.925Z,62.58
2018-08-23T05:44:48.172Z,61.55
2018-08-23T05:45:53.716Z,59.10
2018-08-23T05:46:58.131Z,62.30
2018-08-23T05:48:34.149Z,61.80
2018-08-23T05:49:38.884Z,57.65
2018-08-23T05:50:44.755Z,53.55
2018-08-23T05:51:48.791Z,53.38
2018-08-23T05:52:53.761Z,51.35
2018-08-23T05:53:59.239Z,49.70
2018-08-23T05:55:03.710Z,50.43
2018-08-23T05:56:08.306Z,48.05
2018-08-23T05:57:12.780Z,46.77
2018-08-23T05:58:23.587Z,47.25
2018-08-23T05:59:27.738Z,46.20
2018-08-23T06:00:31.839Z,44.42
2018-08-23T06:01:35.943Z,46.28
2018-08-23T06:02:40.415Z,43.30
2018-08-23T06:03:45.984Z,44.88
2018-08-23T06:04:50.217Z,45.10
2018-08-23T06:05:54.723Z,46.00
2018-08-23T06:06:58.730Z,45.52
2018-08-23T06:08:02.748Z,47.55
2018-08-23T06:09:17.270Z,44.90
2018-08-23T06:10:21.389Z,46.98
2018-08-23T06:11:26.272Z,46.08
2018-08-23T06:12:32.942Z,48.35
2018-08-23T06:13:37.047Z,46.73
2018-08-23T06:14:41.169Z,47.93
2018-08-23T06:15:50.540Z,46.65
2018-08-23T06:16:56.555Z,51.80
2018-08-23T06:18:00.904Z,47.40
2018-08-23T06:19:05.054Z,46.98
2018-08-23T06:20:09.458Z,45.70
2018-08-23T06:21:12.988Z,48.83
2018-08-23T06:22:17.176Z,51.40
2018-08-23T06:23:21.265Z,50.30
2018-08-23T06:24:28.561Z,51.02
2018-08-23T06:25:32.812Z,55.45
2018-08-23T06:26:46.669Z,54.55
2018-08-23T06:27:51.152Z,54.48
2018-08-23T06:28:55.290Z,56.95
2018-08-23T06:29:59.660Z,51.33
2018-08-23T06:31:05.376Z,53.65
2018-08-23T06:32:10.712Z,54.27
2018-08-23T06:33:30.177Z,51.88
2018-08-23T06:34:35.959Z,53.42
2018-08-23T06:35:44.518Z,52.43
2018-08-23T06:36:48.574Z,53.00
2018-08-23T06:37:57.601Z,53.33
2018-08-23T06:39:02.266Z,51.75
2018-08-23T06:40:07.272Z,54.80
2018-08-23T06:41:11.503Z,51.45
2018-08-23T06:42:15.538Z,56.20
2018-08-23T06:43:20.085Z,52.78
2018-08-23T06:44:29.088Z,52.93
2018-08-23T06:45:33.792Z,52.75
2018-08-23T06:46:39.055Z,54.27
2018-08-23T06:47:46.845Z,57.65
2018-08-23T06:48:50.923Z,51.83
2018-08-23T06:49:56.001Z,56.00
2018-08-23T06:51:01.242Z,52.80
2018-08-23T06:52:12.996Z,53.25
2018-08-23T06:53:17.913Z,52.55
2018-08-23T06:54:22.080Z,55.15
2018-08-23T06:55:31.316Z,57.60
2018-08-23T06:56:38.032Z,55.05
2018-08-23T06:57:47.128Z,53.98
2018-08-23T06:58:51.861Z,64.07
2018-08-23T06:59:57.232Z,59.85
2018-08-23T07:01:05.504Z,56.63
2018-08-23T07:02:11.439Z,57.90
2018-08-23T07:03:17.623Z,59.08
2018-08-23T07:04:22.129Z,57.10
2018-08-23T07:05:27.715Z,57.03
2018-08-23T07:06:32.711Z,58.23
2018-08-23T07:07:37.072Z,57.38
2018-08-23T07:08:41.681Z,56.83
2018-08-23T07:09:45.938Z,56.90
2018-08-23T07:10:50.574Z,58.20
2018-08-23T07:12:03.231Z,63.15
2018-08-23T07:13:07.615Z,57.50
2018-08-23T07:14:16.767Z,55.63
2018-08-23T07:15:25.903Z,53.20
2018-08-23T07:16:30.252Z,52.17
2018-08-23T07:17:35.013Z,57.03
2018-08-23T07:18:39.187Z,57.67
2018-08-23T07:19:44.978Z,59.05
2018-08-23T07:20:50.342Z,58.63
2018-08-23T07:21:55.174Z,56.55
2018-08-23T07:22:59.403Z,61.40
2018-08-23T07:24:03.795Z,58.75
2018-08-23T07:25:13.225Z,58.35
2018-08-23T07:26:17.355Z,61.37
2018-08-23T07:27:24.543Z,60.48
2018-08-23T07:28:29.417Z,58.73
2018-08-23T07:29:36.519Z,62.08
2018-08-23T07:30:41.603Z,62.05
2018-08-23T07:31:57.360Z,62.70
2018-08-23T07:33:02.255Z,60.50
2018-08-23T07:34:06.828Z,63.00
2018-08-23T07:35:16.381Z,63.78
2018-08-23T07:36:29.106Z,64.07
2018-08-23T07:37:37.830Z,60.83
2018-08-23T07:38:47.023Z,64.17
2018-08-23T07:39:58.487Z,65.15
2018-08-23T07:41:03.389Z,68.42
2018-08-23T07:42:18.194Z,58.50
2018-08-23T07:43:23.145Z,69.22
2018-08-23T07:44:27.372Z,71.60
2018-08-23T07:45:31.500Z,69.50
2018-08-23T07:46:36.901Z,66.80
2018-08-23T07:47:46.213Z,72.22
2018-08-23T07:48:52.766Z,74.70
2018-08-23T07:50:02.161Z,72.62
2018-08-23T07:51:26.141Z,66.00
2018-08-23T07:52:32.067Z,72.03
2018-08-23T07:53:36.728Z,72.75
2018-08-23T07:54:42.324Z,72.35
2018-08-23T07:55:46.469Z,69.35
2018-08-23T07:56:52.364Z,70.17
2018-08-23T07:57:57.924Z,69.12
2018-08-23T07:59:03.128Z,68.60
2018-08-23T08:00:44.902Z,72.70
2018-08-23T08:01:49.774Z,69.60
2018-08-23T08:02:56.256Z,72.67
2018-08-23T08:04:01.575Z,73.35
2018-08-23T08:05:06.619Z,71.55
2018-08-23T08:06:17.087Z,76.02
2018-08-23T08:07:26.776Z,69.82
2018-08-23T08:08:35.094Z,71.00
2018-08-23T08:09:41.379Z,71.85
2018-08-23T08:10:48.451Z,73.83
2018-08-23T08:11:57.851Z,77.78
2018-08-23T08:13:02.344Z,70.10
2018-08-23T08:14:15.667Z,71.20
2018-08-23T08:15:21.337Z,68.42
2018-08-23T08:16:31.384Z,69.05
2018-08-23T08:17:36.328Z,68.97
2018-08-23T08:18:43.747Z,74.15
2018-08-23T08:20:02.841Z,65.97
2018-08-23T08:21:07.214Z,70.65
2018-08-23T08:22:11.416Z,68.22
2018-08-23T08:23:16.876Z,69.87
2018-08-23T08:24:23.320Z,69.05
2018-08-23T08:25:27.774Z,68.35
2018-08-23T08:26:33.684Z,65.28
2018-08-23T08:27:39.812Z,68.55
2018-08-23T08:28:46.775Z,69.47
2018-08-23T08:29:51.674Z,69.05
2018-08-23T08:31:01.390Z,73.22
2018-08-23T08:32:06.630Z,75.28
2018-08-23T08:33:14.101Z,72.17
2018-08-23T08:34:19.239Z,65.60
2018-08-23T08:35:23.464Z,74.67
2018-08-23T08:36:31.739Z,67.65
2018-08-23T08:37:36.095Z,71.57
2018-08-23T08:38:40.355Z,69.82
2018-08-23T08:39:45.178Z,68.17
2018-08-23T08:40:52.282Z,67.67
2018-08-23T08:41:57.737Z,68.40
2018-08-23T08:43:04.557Z,72.17
2018-08-23T08:44:09.058Z,70.28
2018-08-23T08:45:13.832Z,86.95
2018-08-23T08:46:18.249Z,119.82
2018-08-23T08:47:22.585Z,110.20
2018-08-23T08:48:33.062Z,158.12
2018-08-23T08:49:37.159Z,376.07
2018-08-23T08:52:10.796Z,96.97
2018-08-23T08:53:15.195Z,128.53
2018-08-23T08:54:19.648Z,218.40
2018-08-23T08:55:24.704Z,168.43
2018-08-23T08:56:35.473Z,143.10
2018-08-23T08:57:42.023Z,145.53
2018-08-23T08:58:47.219Z,110.17
2018-08-23T08:59:51.402Z,72.75
2018-08-23T09:00:58.008Z,78.75
2018-08-23T09:02:02.290Z,56.65
2018-08-23T09:03:06.843Z,56.02
2018-08-23T09:04:15.401Z,64.25
2018-08-23T09:05:19.772Z,55.60
2018-08-23T09:06:28.973Z,53.70
2018-08-23T09:07:36.661Z,46.92
2018-08-23T09:08:41.173Z,46.02
2018-08-23T09:09:45.458Z,47.30
2018-08-23T09:10:50.324Z,43.02
2018-08-23T09:11:55.301Z,42.62
2018-08-23T09:12:59.383Z,41.35
2018-08-23T09:14:07.094Z,36.42
2018-08-23T09:15:11.251Z,36.42
2018-08-23T09:16:16.085Z,34.05
2018-08-23T09:17:38.766Z,32.17
2018-08-23T09:18:46.411Z,31.15
2018-08-23T09:20:08.249Z,28.17
2018-08-23T09:21:14.779Z,26.73
2018-08-23T09:22:20.275Z,23.80
2018-08-23T09:23:25.457Z,23.92
2018-08-23T09:24:30.374Z,26.87
2018-08-23T09:25:40.174Z,24.30
2018-08-23T09:26:45.061Z,25.88
2018-08-23T09:27:50.204Z,27.05
2018-08-23T09:28:54.805Z,26.62
2018-08-23T09:29:59.936Z,26.25
2018-08-23T09:31:06.378Z,27.73
2018-08-23T09:32:13.952Z,22.95
2018-08-23T09:33:24.014Z,22.73
2018-08-23T09:34:28.132Z,26.40
2018-08-23T09:35:33.539Z,26.30
2018-08-23T09:36:38.303Z,26.70
2018-08-23T09:37:43.510Z,27.95
2018-08-23T09:38:48.915Z,25.50
2018-08-23T09:39:54.441Z,22.40
2018-08-23T09:40:58.826Z,22.85
2018-08-23T09:42:03.732Z,25.30
2018-08-23T09:43:08.410Z,23.27
2018-08-23T09:44:12.587Z,22.60
2018-08-23T09:45:20.537Z,22.70
2018-08-23T09:46:25.057Z,19.80
2018-08-23T09:47:31.328Z,22.45
2018-08-23T09:48:36.635Z,21.77
2018-08-23T09:49:44.177Z,22.70
2018-08-23T09:50:48.721Z,19.48
2018-08-23T09:51:53.335Z,18.77
2018-08-23T09:52:58.676Z,17.32
2018-08-23T09:54:03.911Z,17.32
2018-08-23T09:55:09.299Z,16.60
2018-08-23T09:56:31.205Z,17.15
2018-08-23T09:57:37.369Z,17.40
2018-08-23T09:58:42.222Z,15.70
2018-08-23T09:59:50.703Z,21.95
2018-08-23T10:01:00.590Z,20.00
2018-08-23T10:02:12.387Z,16.10
2018-08-23T10:03:22.001Z,16.73
2018-08-23T10:04:32.596Z,18.37
2018-08-23T10:05:47.560Z,16.95
2018-08-23T10:07:04.511Z,17.55
2018-08-23T10:08:13.903Z,22.58
2018-08-23T10:09:23.047Z,15.93
2018-08-23T10:10:32.730Z,16.65
2018-08-23T10:11:43.308Z,17.37
2018-08-23T10:12:52.709Z,14.53
2018-08-23T10:14:16.175Z,13.85
2018-08-23T10:15:26.616Z,15.28
2018-08-23T10:16:36.074Z,16.50
2018-08-23T10:17:46.788Z,15.45
2018-08-23T10:18:52.216Z,15.93
2018-08-23T10:20:01.695Z,16.45
2018-08-23T10:21:06.629Z,16.27
2018-08-23T10:22:16.229Z,15.05
2018-08-23T10:23:24.846Z,14.43
2018-08-23T10:24:33.263Z,15.20
2018-08-23T10:25:43.545Z,12.95
2018-08-23T10:26:49.168Z,14.40
2018-08-23T10:27:56.107Z,11.80
2018-08-23T10:29:01.340Z,12.58
2018-08-23T10:30:05.840Z,11.25
2018-08-23T10:31:12.271Z,14.63
2018-08-23T10:32:16.415Z,13.88
2018-08-23T10:33:25.924Z,13.13
2018-08-23T10:34:30.218Z,10.88
2018-08-23T10:35:48.216Z,13.80
2018-08-23T10:36:56.050Z,11.20
2018-08-23T10:38:00.665Z,12.85
2018-08-23T10:39:08.503Z,10.55
2018-08-23T10:40:13.167Z,14.90
2018-08-23T10:41:19.186Z,13.78
2018-08-23T10:42:24.115Z,15.93
2018-08-23T10:43:33.292Z,15.53
2018-08-23T10:44:37.492Z,13.98
2018-08-23T10:45:43.497Z,14.43
2018-08-23T10:46:54.682Z,14.45
2018-08-23T10:48:04.134Z,12.82
2018-08-23T10:49:08.727Z,13.55
2018-08-23T10:50:13.388Z,10.98
2018-08-23T10:51:19.283Z,15.45
2018-08-23T10:52:23.639Z,11.78
2018-08-23T10:53:28.256Z,13.10
2018-08-23T10:54:32.583Z,13.03
2018-08-23T10:55:37.997Z,12.28
2018-08-23T10:56:43.352Z,11.65
2018-08-23T10:57:49.271Z,12.30
2018-08-23T10:58:53.897Z,11.95
2018-08-23T10:59:58.238Z,12.03
2018-08-23T11:01:03.125Z,11.88
2018-08-23T11:02:07.568Z,11.18
2018-08-23T11:03:12.434Z,9.83
2018-08-23T11:04:16.636Z,10.50
2018-08-23T11:05:22.133Z,14.75
2018-08-23T11:06:26.303Z,12.05
2018-08-23T11:07:35.534Z,12.90
2018-08-23T11:08:39.876Z,9.00
2018-08-23T11:09:49.350Z,12.25
2018-08-23T11:10:59.357Z,8.90
2018-08-23T11:12:04.585Z,9.95
2018-08-23T11:13:13.835Z,9.03
2018-08-23T11:14:23.218Z,11.43
2018-08-23T11:15:28.431Z,9.55
2018-08-23T11:16:40.072Z,9.40
2018-08-23T11:17:52.189Z,9.13
2018-08-23T11:19:01.916Z,9.05
2018-08-23T11:20:11.805Z,8.48
2018-08-23T11:21:17.740Z,8.70
2018-08-23T11:22:26.414Z,9.88
2018-08-23T11:23:31.030Z,8.68
2018-08-23T11:24:35.573Z,8.00
2018-08-23T11:25:41.035Z,8.03
2018-08-23T11:27:13.427Z,10.03
2018-08-23T11:28:23.156Z,10.90
2018-08-23T11:29:28.200Z,7.87
2018-08-23T11:30:33.726Z,11.70
2018-08-23T11:31:41.674Z,9.03
2018-08-23T11:32:47.229Z,9.43
2018-08-23T11:34:06.218Z,7.78
2018-08-23T11:35:13.526Z,8.60
2018-08-23T11:36:18.289Z,6.95
2018-08-23T11:37:23.998Z,8.38
2018-08-23T11:38:30.385Z,7.65
2018-08-23T11:39:34.635Z,6.20
2018-08-23T11:40:39.044Z,9.35
2018-08-23T11:41:46.001Z,10.85
2018-08-23T11:42:52.665Z,8.98
2018-08-23T11:44:00.194Z,6.33
2018-08-23T11:45:09.504Z,7.85
2018-08-23T11:46:15.840Z,7.03
2018-08-23T11:47:20.443Z,6.15
2018-08-23T11:48:25.805Z,6.20
2018-08-23T11:49:32.108Z,8.73
2018-08-23T11:50:42.534Z,6.60
2018-08-23T11:51:52.968Z,6.33
2018-08-23T11:53:14.647Z,6.42
2018-08-23T11:54:18.752Z,5.85
2018-08-23T11:55:23.286Z,7.85
2018-08-23T11:56:28.742Z,6.15
2018-08-23T11:57:38.017Z,8.58
2018-08-23T11:58:48.239Z,6.87
2018-08-23T12:00:00.553Z,6.90
2018-08-23T12:01:22.068Z,5.35
2018-08-23T12:03:03.393Z,4.00
2018-08-23T12:04:08.870Z,5.50
2018-08-23T12:05:18.848Z,5.78
2018-08-23T12:06:23.569Z,4.90
2018-08-23T12:07:28.290Z,5.12
2018-08-23T12:08:33.539Z,6.80
2018-08-23T12:09:45.407Z,6.75
2018-08-23T12:10:55.065Z,6.47
2018-08-23T12:12:00.242Z,6.45
2018-08-23T12:13:06.754Z,4.90
2018-08-23T12:14:12.757Z,5.97
2018-08-23T12:15:24.644Z,5.12
2018-08-23T12:16:32.206Z,5.40
2018-08-23T12:17:40.370Z,5.15
2018-08-23T12:18:47.426Z,6.00
2018-08-23T12:19:52.090Z,4.90
2018-08-23T12:20:58.343Z,5.05
2018-08-23T12:22:02.930Z,4.80
2018-08-23T12:23:12.859Z,5.58
2018-08-23T12:24:18.020Z,5.37
2018-08-23T12:25:23.353Z,5.47
2018-08-23T12:26:28.270Z,4.90
2018-08-23T12:27:32.483Z,6.15
2018-08-23T12:28:46.705Z,7.65
2018-08-23T12:29:53.114Z,6.12
2018-08-23T12:30:57.653Z,5.12
2018-08-23T12:32:06.648Z,6.00
2018-08-23T12:33:11.401Z,5.25
2018-08-23T12:34:25.572Z,4.60
2018-08-23T12:35:31.365Z,6.87
2018-08-23T12:36:41.078Z,5.90
2018-08-23T12:37:56.259Z,5.95
2018-08-23T12:39:06.779Z,7.53
2018-08-23T12:40:17.113Z,5.40
2018-08-23T12:41:26.482Z,6.67
2018-08-23T12:42:52.333Z,6.20
2018-08-23T12:44:27.225Z,7.92
2018-08-23T12:45:32.752Z,7.50
2018-08-23T12:46:36.875Z,10.15
2018-08-23T12:47:41.281Z,6.30
2018-08-23T12:48:46.029Z,6.97
2018-08-23T12:49:51.219Z,7.10
2018-08-23T12:50:55.656Z,5.80
2018-08-23T12:52:00.028Z,8.80
2018-08-23T12:53:04.152Z,10.40
2018-08-23T12:54:09.447Z,8.10
2018-08-23T12:55:15.352Z,7.80
2018-08-23T12:56:19.488Z,7.87
2018-08-23T12:57:24.702Z,8.90
2018-08-23T12:58:29.240Z,7.90
2018-08-23T12:59:34.324Z,7.80
2018-08-23T13:00:39.399Z,8.90
2018-08-23T13:01:44.247Z,7.45
2018-08-23T13:02:48.486Z,7.28
2018-08-23T13:03:52.652Z,9.40
2018-08-23T13:04:57.161Z,8.43
2018-08-23T13:06:02.035Z,6.42
2018-08-23T13:07:07.307Z,7.42
2018-08-23T13:08:11.794Z,8.95
2018-08-23T13:09:16.090Z,8.73
2018-08-23T13:10:20.210Z,6.97
2018-08-23T13:11:24.443Z,8.13
2018-08-23T13:12:29.177Z,8.08
2018-08-23T13:13:34.678Z,7.20
2018-08-23T13:14:38.780Z,9.05
2018-08-23T13:15:43.470Z,9.33
2018-08-23T13:16:47.607Z,10.70
2018-08-23T13:17:53.769Z,9.90
2018-08-23T13:18:59.189Z,8.70
2018-08-23T13:20:03.587Z,9.30
2018-08-23T13:21:10.746Z,9.58
2018-08-23T13:22:47.205Z,11.53
2018-08-23T13:23:52.472Z,8.68
2018-08-23T13:25:02.790Z,10.85
2018-08-23T13:26:08.733Z,12.43
2018-08-23T13:27:13.291Z,9.95
2018-08-23T13:28:18.339Z,9.38
2018-08-23T13:29:23.480Z,9.70
2018-08-23T13:30:28.148Z,9.50
2018-08-23T13:31:33.284Z,9.28
2018-08-23T13:32:37.792Z,9.63
2018-08-23T13:33:42.625Z,10.78
2018-08-23T13:34:46.767Z,9.40
2018-08-23T13:35:51.401Z,14.50
2018-08-23T13:36:56.521Z,9.00
2018-08-23T13:38:01.407Z,10.40
2018-08-23T13:39:12.777Z,10.63
2018-08-23T13:40:20.176Z,11.28
2018-08-23T13:41:24.261Z,10.15
2018-08-23T13:42:28.424Z,11.95
2018-08-23T13:43:32.954Z,12.40
2018-08-23T13:44:37.673Z,10.68
2018-08-23T13:45:43.924Z,11.10
2018-08-23T13:46:48.120Z,9.80
2018-08-23T13:47:52.834Z,10.85
2018-08-23T13:48:57.431Z,10.03
2018-08-23T13:50:03.615Z,10.70
2018-08-23T13:51:11.158Z,9.75
2018-08-23T13:52:17.081Z,9.75
2018-08-23T13:53:23.224Z,10.40
2018-08-23T13:54:31.737Z,11.15
2018-08-23T13:55:38.191Z,12.55
2018-08-23T13:56:43.611Z,11.30
2018-08-23T13:57:50.108Z,12.50
2018-08-23T13:58:56.751Z,12.63
2018-08-23T14:00:02.783Z,11.85
2018-08-23T14:01:07.189Z,12.28
2018-08-23T14:02:12.222Z,14.20
2018-08-23T14:03:20.431Z,13.35
2018-08-23T14:04:29.606Z,12.07
2018-08-23T14:05:34.191Z,17.32
2018-08-23T14:06:38.720Z,14.13
2018-08-23T14:07:43.763Z,11.08
2018-08-23T14:08:48.172Z,11.80
2018-08-23T14:09:55.092Z,11.12
2018-08-23T14:11:01.098Z,12.65
2018-08-23T14:12:06.307Z,13.10
2018-08-23T14:13:12.309Z,12.30
2018-08-23T14:14:18.687Z,13.35
2018-08-23T14:15:28.219Z,13.98
2018-08-23T14:16:33.527Z,11.73
2018-08-23T14:17:39.351Z,11.65
2018-08-23T14:18:45.466Z,10.70
2018-08-23T14:19:51.104Z,12.10
2018-08-23T14:20:56.359Z,14.23
2018-08-23T14:22:01.433Z,18.20
2018-08-23T14:23:07.549Z,14.35
2018-08-23T14:24:14.140Z,12.88
2018-08-23T14:25:19.094Z,13.53
2018-08-23T14:26:25.683Z,12.47
2018-08-23T14:27:30.780Z,14.63
2018-08-23T14:28:37.501Z,15.00
2018-08-23T14:29:44.367Z,17.90